sensor_id;sensor_type;location;lat;lon;timestamp;pressure;altitude;pressure_sealevel;temperature;humidity
8101;BME280;4093;53.470;9.832;2023-04-09T00:00:29;102685.91;;;9.45;100.00
8101;BME280;4093;53.470;9.832;2023-04-09T00:02:58;102675.06;;;9.65;100.00
8101;BME280;4093;53.470;9.832;2023-04-09T00:05:26;102688.47;;;9.45;100.00
8101;BME280;4093;53.470;9.832;2023-04-09T00:07:54;102687.31;;;9.75;99.67
8101;BME280;4093;53.470;9.832;2023-04-09T00:10:22;102683.09;;;10.33;96.66
8101;BME280;4093;53.470;9.832;2023-04-09T00:12:50;102680.75;;;9.95;97.53
8101;BME280;4093;53.470;9.832;2023-04-09T00:15:17;102683.19;;;9.85;98.61
8101;BME280;4093;53.470;9.832;2023-04-09T00:17:55;102686.94;;;10.04;97.32
8101;BME280;4093;53.470;9.832;2023-04-09T00:20:25;102695.56;;;10.04;97.35
8101;BME280;4093;53.470;9.832;2023-04-09T00:22:53;102680.84;;;9.52;99.02
8101;BME280;4093;53.470;9.832;2023-04-09T00:25:21;102684.34;;;10.05;97.87
8101;BME280;4093;53.470;9.832;2023-04-09T00:27:49;102679.66;;;10.31;95.27
8101;BME280;4093;53.470;9.832;2023-04-09T00:30:17;102677.34;;;10.51;94.16
8101;BME280;4093;53.470;9.832;2023-04-09T00:32:44;102678.06;;;10.42;94.61
8101;BME280;4093;53.470;9.832;2023-04-09T00:35:12;102672.09;;;10.45;93.91
8101;BME280;4093;53.470;9.832;2023-04-09T00:37:41;102669.13;;;10.81;92.02
8101;BME280;4093;53.470;9.832;2023-04-09T00:40:09;102666.13;;;10.52;92.81
8101;BME280;4093;53.470;9.832;2023-04-09T00:42:37;102675.19;;;10.83;92.57
8101;BME280;4093;53.470;9.832;2023-04-09T00:45:06;102668.03;;;10.64;91.98
8101;BME280;4093;53.470;9.832;2023-04-09T00:47:34;102665.97;;;11.05;90.57
8101;BME280;4093;53.470;9.832;2023-04-09T00:50:02;102666.63;;;10.89;90.64
8101;BME280;4093;53.470;9.832;2023-04-09T00:52:31;102660.44;;;10.78;90.08
8101;BME280;4093;53.470;9.832;2023-04-09T00:55:03;102656.13;;;10.75;90.69
8101;BME280;4093;53.470;9.832;2023-04-09T00:57:31;102661.81;;;10.51;92.20
8101;BME280;4093;53.470;9.832;2023-04-09T00:59:59;102656.25;;;10.86;90.20
8101;BME280;4093;53.470;9.832;2023-04-09T01:02:27;102656.19;;;10.81;90.40
8101;BME280;4093;53.470;9.832;2023-04-09T01:04:56;102653.91;;;11.07;89.02
8101;BME280;4093;53.470;9.832;2023-04-09T01:07:30;102651.47;;;11.21;87.55
8101;BME280;4093;53.470;9.832;2023-04-09T01:10:12;102646.47;;;11.40;87.35
8101;BME280;4093;53.470;9.832;2023-04-09T01:12:51;102648.63;;;10.98;87.92
8101;BME280;4093;53.470;9.832;2023-04-09T01:15:24;102650.16;;;10.82;88.96
8101;BME280;4093;53.470;9.832;2023-04-09T01:17:56;102642.03;;;10.55;90.20
8101;BME280;4093;53.470;9.832;2023-04-09T01:20:31;102635.66;;;10.30;91.67
8101;BME280;4093;53.470;9.832;2023-04-09T01:23:06;102649.66;;;10.44;93.21
8101;BME280;4093;53.470;9.832;2023-04-09T01:25:44;102648.91;;;10.53;92.57
8101;BME280;4093;53.470;9.832;2023-04-09T01:28:17;102637.53;;;9.87;93.51
8101;BME280;4093;53.470;9.832;2023-04-09T01:30:48;102653.63;;;10.22;93.00
8101;BME280;4093;53.470;9.832;2023-04-09T01:33:17;102648.94;;;10.00;93.32
8101;BME280;4093;53.470;9.832;2023-04-09T01:35:47;102643.41;;;9.75;95.20
8101;BME280;4093;53.470;9.832;2023-04-09T01:38:17;102653.75;;;10.28;93.08
8101;BME280;4093;53.470;9.832;2023-04-09T01:40:47;102651.38;;;10.44;91.75
8101;BME280;4093;53.470;9.832;2023-04-09T01:43:18;102639.06;;;10.27;91.36
8101;BME280;4093;53.470;9.832;2023-04-09T01:45:46;102645.00;;;10.22;93.18
8101;BME280;4093;53.470;9.832;2023-04-09T01:48:15;102649.97;;;10.67;91.30
8101;BME280;4093;53.470;9.832;2023-04-09T01:50:43;102651.84;;;10.80;90.28
8101;BME280;4093;53.470;9.832;2023-04-09T01:53:11;102648.69;;;11.04;88.23
8101;BME280;4093;53.470;9.832;2023-04-09T01:55:39;102628.34;;;10.62;88.95
8101;BME280;4093;53.470;9.832;2023-04-09T01:58:07;102649.19;;;10.74;89.18
8101;BME280;4093;53.470;9.832;2023-04-09T02:00:38;102638.63;;;10.57;89.90
8101;BME280;4093;53.470;9.832;2023-04-09T02:03:09;102636.56;;;10.33;91.07
8101;BME280;4093;53.470;9.832;2023-04-09T02:05:41;102641.22;;;10.57;90.53
8101;BME280;4093;53.470;9.832;2023-04-09T02:08:12;102630.38;;;9.69;94.04
8101;BME280;4093;53.470;9.832;2023-04-09T02:10:44;102632.81;;;9.60;95.70
8101;BME280;4093;53.470;9.832;2023-04-09T02:13:19;102641.06;;;9.40;97.26
8101;BME280;4093;53.470;9.832;2023-04-09T02:15:49;102644.69;;;10.02;94.64
8101;BME280;4093;53.470;9.832;2023-04-09T02:18:25;102642.19;;;10.08;93.50
8101;BME280;4093;53.470;9.832;2023-04-09T02:20:54;102640.91;;;9.81;94.64
8101;BME280;4093;53.470;9.832;2023-04-09T02:23:23;102642.16;;;9.53;96.77
8101;BME280;4093;53.470;9.832;2023-04-09T02:25:51;102645.78;;;9.63;96.60
8101;BME280;4093;53.470;9.832;2023-04-09T02:28:19;102644.56;;;9.95;95.09
8101;BME280;4093;53.470;9.832;2023-04-09T02:30:48;102644.88;;;10.12;94.16
8101;BME280;4093;53.470;9.832;2023-04-09T02:33:16;102644.97;;;10.20;93.35
8101;BME280;4093;53.470;9.832;2023-04-09T02:35:44;102638.47;;;10.44;91.91
8101;BME280;4093;53.470;9.832;2023-04-09T02:38:11;102636.38;;;10.82;90.67
8101;BME280;4093;53.470;9.832;2023-04-09T02:40:41;102628.00;;;11.04;89.26
8101;BME280;4093;53.470;9.832;2023-04-09T02:43:09;102630.63;;;11.09;89.70
8101;BME280;4093;53.470;9.832;2023-04-09T02:45:37;102635.06;;;11.21;88.68
8101;BME280;4093;53.470;9.832;2023-04-09T02:48:06;102621.13;;;11.06;89.03
8101;BME280;4093;53.470;9.832;2023-04-09T02:50:33;102610.97;;;11.28;88.27
8101;BME280;4093;53.470;9.832;2023-04-09T02:53:01;102621.47;;;11.42;87.75
8101;BME280;4093;53.470;9.832;2023-04-09T02:55:29;102613.56;;;11.26;86.23
8101;BME280;4093;53.470;9.832;2023-04-09T02:57:56;102605.91;;;11.39;87.13
8101;BME280;4093;53.470;9.832;2023-04-09T03:00:24;102609.47;;;11.53;86.62
8101;BME280;4093;53.470;9.832;2023-04-09T03:02:52;102600.94;;;11.60;86.22
8101;BME280;4093;53.470;9.832;2023-04-09T03:05:21;102596.19;;;11.16;86.65
8101;BME280;4093;53.470;9.832;2023-04-09T03:07:49;102580.88;;;10.58;89.11
8101;BME280;4093;53.470;9.832;2023-04-09T03:10:17;102584.47;;;10.09;91.78
8101;BME280;4093;53.470;9.832;2023-04-09T03:12:44;102590.31;;;10.55;91.27
8101;BME280;4093;53.470;9.832;2023-04-09T03:15:13;102597.66;;;10.91;89.93
8101;BME280;4093;53.470;9.832;2023-04-09T03:17:40;102598.59;;;10.99;88.60
8101;BME280;4093;53.470;9.832;2023-04-09T03:20:09;102598.34;;;10.78;89.69
8101;BME280;4093;53.470;9.832;2023-04-09T03:22:38;102597.75;;;11.00;89.08
8101;BME280;4093;53.470;9.832;2023-04-09T03:25:07;102597.09;;;11.20;87.96
8101;BME280;4093;53.470;9.832;2023-04-09T03:27:34;102589.41;;;11.29;86.67
8101;BME280;4093;53.470;9.832;2023-04-09T03:30:02;102582.09;;;10.89;87.38
8101;BME280;4093;53.470;9.832;2023-04-09T03:32:30;102593.59;;;11.16;87.94
8101;BME280;4093;53.470;9.832;2023-04-09T03:34:58;102590.28;;;11.31;86.83
8101;BME280;4093;53.470;9.832;2023-04-09T03:37:26;102591.28;;;11.45;85.93
8101;BME280;4093;53.470;9.832;2023-04-09T03:39:55;102596.47;;;11.47;86.62
8101;BME280;4093;53.470;9.832;2023-04-09T03:42:22;102593.91;;;11.48;85.34
8101;BME280;4093;53.470;9.832;2023-04-09T03:44:52;102582.50;;;11.31;85.67
8101;BME280;4093;53.470;9.832;2023-04-09T03:47:20;102574.44;;;10.99;86.44
8101;BME280;4093;53.470;9.832;2023-04-09T03:49:48;102576.50;;;10.56;89.64
8101;BME280;4093;53.470;9.832;2023-04-09T03:52:15;102577.13;;;10.35;90.69
8101;BME280;4093;53.470;9.832;2023-04-09T03:54:43;102576.63;;;10.65;89.65
8101;BME280;4093;53.470;9.832;2023-04-09T03:57:12;102583.69;;;10.13;91.72
8101;BME280;4093;53.470;9.832;2023-04-09T03:59:40;102587.75;;;10.56;90.74
8101;BME280;4093;53.470;9.832;2023-04-09T04:02:08;102582.75;;;10.70;88.91
8101;BME280;4093;53.470;9.832;2023-04-09T04:04:35;102581.66;;;10.53;89.06
8101;BME280;4093;53.470;9.832;2023-04-09T04:07:03;102595.94;;;10.92;88.08
8101;BME280;4093;53.470;9.832;2023-04-09T04:09:31;102586.59;;;11.07;86.76
8101;BME280;4093;53.470;9.832;2023-04-09T04:12:00;102577.97;;;11.07;85.27
8101;BME280;4093;53.470;9.832;2023-04-09T04:14:30;102581.59;;;11.23;84.40
8101;BME280;4093;53.470;9.832;2023-04-09T04:16:57;102585.72;;;11.05;85.58
8101;BME280;4093;53.470;9.832;2023-04-09T04:19:25;102584.22;;;11.27;85.54
8101;BME280;4093;53.470;9.832;2023-04-09T04:21:53;102579.91;;;11.29;84.70
8101;BME280;4093;53.470;9.832;2023-04-09T04:24:20;102576.19;;;11.03;86.43
8101;BME280;4093;53.470;9.832;2023-04-09T04:26:48;102581.47;;;11.10;85.44
8101;BME280;4093;53.470;9.832;2023-04-09T04:29:16;102587.34;;;10.96;86.38
8101;BME280;4093;53.470;9.832;2023-04-09T04:31:45;102576.25;;;11.09;85.33
8101;BME280;4093;53.470;9.832;2023-04-09T04:34:13;102583.09;;;11.02;85.92
8101;BME280;4093;53.470;9.832;2023-04-09T04:36:40;102581.19;;;10.86;85.96
8101;BME280;4093;53.470;9.832;2023-04-09T04:39:08;102588.34;;;11.07;85.21
8101;BME280;4093;53.470;9.832;2023-04-09T04:41:36;102590.88;;;11.04;86.01
8101;BME280;4093;53.470;9.832;2023-04-09T04:44:05;102590.38;;;10.61;87.98
8101;BME280;4093;53.470;9.832;2023-04-09T04:46:32;102593.38;;;10.95;87.68
8101;BME280;4093;53.470;9.832;2023-04-09T04:49:01;102595.91;;;10.88;86.73
8101;BME280;4093;53.470;9.832;2023-04-09T04:51:29;102597.78;;;11.03;85.54
8101;BME280;4093;53.470;9.832;2023-04-09T04:53:57;102605.56;;;11.03;85.08
8101;BME280;4093;53.470;9.832;2023-04-09T04:56:25;102602.09;;;11.06;84.41
8101;BME280;4093;53.470;9.832;2023-04-09T04:58:53;102601.41;;;11.21;85.04
8101;BME280;4093;53.470;9.832;2023-04-09T05:01:20;102599.59;;;11.12;85.33
8101;BME280;4093;53.470;9.832;2023-04-09T05:03:48;102598.91;;;11.28;86.09
8101;BME280;4093;53.470;9.832;2023-04-09T05:06:17;102596.22;;;11.19;85.26
8101;BME280;4093;53.470;9.832;2023-04-09T05:08:45;102593.59;;;11.16;86.13
8101;BME280;4093;53.470;9.832;2023-04-09T05:11:13;102596.06;;;10.34;89.18
8101;BME280;4093;53.470;9.832;2023-04-09T05:13:42;102575.94;;;10.13;90.22
8101;BME280;4093;53.470;9.832;2023-04-09T05:16:15;102603.31;;;10.61;89.74
8101;BME280;4093;53.470;9.832;2023-04-09T05:18:43;102601.09;;;10.92;87.68
8101;BME280;4093;53.470;9.832;2023-04-09T05:21:10;102599.22;;;10.78;87.43
8101;BME280;4093;53.470;9.832;2023-04-09T05:23:39;102600.44;;;10.39;90.13
8101;BME280;4093;53.470;9.832;2023-04-09T05:26:08;102601.59;;;10.61;89.19
8101;BME280;4093;53.470;9.832;2023-04-09T05:28:36;102606.88;;;10.71;88.82
8101;BME280;4093;53.470;9.832;2023-04-09T05:31:03;102602.28;;;10.48;89.80
8101;BME280;4093;53.470;9.832;2023-04-09T05:33:36;102593.09;;;10.72;89.22
8101;BME280;4093;53.470;9.832;2023-04-09T05:36:04;102608.91;;;10.96;88.74
8101;BME280;4093;53.470;9.832;2023-04-09T05:38:32;102607.31;;;11.07;87.83
8101;BME280;4093;53.470;9.832;2023-04-09T05:41:01;102610.16;;;11.33;87.53
8101;BME280;4093;53.470;9.832;2023-04-09T05:43:29;102610.22;;;11.40;86.59
8101;BME280;4093;53.470;9.832;2023-04-09T05:45:57;102610.22;;;11.40;86.15
8101;BME280;4093;53.470;9.832;2023-04-09T05:48:24;102603.66;;;10.88;86.12
8101;BME280;4093;53.470;9.832;2023-04-09T05:50:55;102610.22;;;10.62;88.40
8101;BME280;4093;53.470;9.832;2023-04-09T05:53:26;102607.06;;;10.84;87.75
8101;BME280;4093;53.470;9.832;2023-04-09T05:55:54;102614.28;;;11.13;86.36
8101;BME280;4093;53.470;9.832;2023-04-09T05:58:23;102614.53;;;11.39;85.88
8101;BME280;4093;53.470;9.832;2023-04-09T06:00:51;102609.44;;;10.66;87.14
8101;BME280;4093;53.470;9.832;2023-04-09T06:03:18;102603.59;;;10.20;89.73
8101;BME280;4093;53.470;9.832;2023-04-09T06:05:47;102611.78;;;9.91;92.50
8101;BME280;4093;53.470;9.832;2023-04-09T06:08:14;102618.06;;;9.56;93.80
8101;BME280;4093;53.470;9.832;2023-04-09T06:10:42;102611.03;;;9.45;95.68
8101;BME280;4093;53.470;9.832;2023-04-09T06:13:10;102620.84;;;10.21;93.33
8101;BME280;4093;53.470;9.832;2023-04-09T06:15:39;102618.03;;;9.53;95.38
8101;BME280;4093;53.470;9.832;2023-04-09T06:18:07;102627.53;;;9.54;95.33
8101;BME280;4093;53.470;9.832;2023-04-09T06:20:34;102628.06;;;9.34;95.90
8101;BME280;4093;53.470;9.832;2023-04-09T06:23:02;102637.94;;;9.58;95.50
8101;BME280;4093;53.470;9.832;2023-04-09T06:25:30;102641.38;;;10.12;93.49
8101;BME280;4093;53.470;9.832;2023-04-09T06:27:57;102645.09;;;10.26;91.22
8101;BME280;4093;53.470;9.832;2023-04-09T06:30:25;102652.47;;;10.61;89.00
8101;BME280;4093;53.470;9.832;2023-04-09T06:32:54;102638.88;;;10.16;90.82
8101;BME280;4093;53.470;9.832;2023-04-09T06:35:22;102638.53;;;9.95;91.91
8101;BME280;4093;53.470;9.832;2023-04-09T06:37:49;102649.28;;;10.19;91.42
8101;BME280;4093;53.470;9.832;2023-04-09T06:40:17;102647.53;;;10.81;88.18
8101;BME280;4093;53.470;9.832;2023-04-09T06:42:48;102643.03;;;10.64;87.90
8101;BME280;4093;53.470;9.832;2023-04-09T06:45:16;102647.84;;;10.40;88.60
8101;BME280;4093;53.470;9.832;2023-04-09T06:47:44;102643.50;;;10.34;89.32
8101;BME280;4093;53.470;9.832;2023-04-09T06:50:13;102650.88;;;10.71;88.09
8101;BME280;4093;53.470;9.832;2023-04-09T06:52:40;102642.31;;;10.76;86.75
8101;BME280;4093;53.470;9.832;2023-04-09T06:55:08;102637.00;;;10.06;88.38
8101;BME280;4093;53.470;9.832;2023-04-09T06:57:36;102637.47;;;9.82;90.20
8101;BME280;4093;53.470;9.832;2023-04-09T07:00:06;102649.34;;;9.71;92.59
8101;BME280;4093;53.470;9.832;2023-04-09T07:02:35;102649.84;;;10.58;88.99
8101;BME280;4093;53.470;9.832;2023-04-09T07:05:03;102651.97;;;10.89;86.74
8101;BME280;4093;53.470;9.832;2023-04-09T07:07:32;102647.94;;;10.45;89.68
8101;BME280;4093;53.470;9.832;2023-04-09T07:10:00;102646.59;;;10.15;90.31
8101;BME280;4093;53.470;9.832;2023-04-09T07:12:28;102649.41;;;10.27;90.26
8101;BME280;4093;53.470;9.832;2023-04-09T07:14:57;102644.47;;;10.42;89.23
8101;BME280;4093;53.470;9.832;2023-04-09T07:17:24;102650.00;;;10.11;90.42
8101;BME280;4093;53.470;9.832;2023-04-09T07:19:52;102651.94;;;10.26;90.32
8101;BME280;4093;53.470;9.832;2023-04-09T07:22:21;102653.59;;;10.20;90.82
8101;BME280;4093;53.470;9.832;2023-04-09T07:24:50;102640.22;;;9.93;89.83
8101;BME280;4093;53.470;9.832;2023-04-09T07:27:20;102649.28;;;10.21;89.65
8101;BME280;4093;53.470;9.832;2023-04-09T07:29:48;102649.28;;;10.21;88.36
8101;BME280;4093;53.470;9.832;2023-04-09T07:32:16;102656.34;;;10.28;88.03
8101;BME280;4093;53.470;9.832;2023-04-09T07:34:44;102651.66;;;10.63;85.75
8101;BME280;4093;53.470;9.832;2023-04-09T07:37:11;102653.06;;;11.07;84.44
8101;BME280;4093;53.470;9.832;2023-04-09T07:39:39;102647.50;;;11.55;83.48
8101;BME280;4093;53.470;9.832;2023-04-09T07:42:09;102637.44;;;11.01;83.92
8101;BME280;4093;53.470;9.832;2023-04-09T07:44:37;102640.09;;;11.08;85.68
8101;BME280;4093;53.470;9.832;2023-04-09T07:47:06;102630.84;;;10.56;85.40
8101;BME280;4093;53.470;9.832;2023-04-09T07:49:35;102623.19;;;10.04;87.17
8101;BME280;4093;53.470;9.832;2023-04-09T07:52:03;102631.00;;;10.67;83.55
8101;BME280;4093;53.470;9.832;2023-04-09T07:54:32;102625.16;;;10.83;83.13
8101;BME280;4093;53.470;9.832;2023-04-09T07:57:00;102636.03;;;11.30;82.28
8101;BME280;4093;53.470;9.832;2023-04-09T07:59:29;102611.78;;;11.24;79.54
8101;BME280;4093;53.470;9.832;2023-04-09T08:01:57;102638.13;;;11.68;79.01
8101;BME280;4093;53.470;9.832;2023-04-09T08:04:25;102639.16;;;11.86;78.39
8101;BME280;4093;53.470;9.832;2023-04-09T08:06:54;102632.09;;;11.71;78.81
8101;BME280;4093;53.470;9.832;2023-04-09T08:09:21;102629.41;;;11.57;79.39
8101;BME280;4093;53.470;9.832;2023-04-09T08:11:49;102631.97;;;11.58;79.54
8101;BME280;4093;53.470;9.832;2023-04-09T08:14:17;102623.78;;;11.14;81.57
8101;BME280;4093;53.470;9.832;2023-04-09T08:16:46;102619.28;;;10.99;81.27
8101;BME280;4093;53.470;9.832;2023-04-09T08:19:16;102628.25;;;11.30;80.15
8101;BME280;4093;53.470;9.832;2023-04-09T08:21:44;102630.00;;;10.57;83.62
8101;BME280;4093;53.470;9.832;2023-04-09T08:24:14;102634.94;;;11.08;83.45
8101;BME280;4093;53.470;9.832;2023-04-09T08:26:42;102627.63;;;10.72;82.67
8101;BME280;4093;53.470;9.832;2023-04-09T08:29:11;102631.50;;;11.11;82.24
8101;BME280;4093;53.470;9.832;2023-04-09T08:31:40;102633.16;;;11.04;81.29
8101;BME280;4093;53.470;9.832;2023-04-09T08:34:09;102628.81;;;10.32;83.24
8101;BME280;4093;53.470;9.832;2023-04-09T08:36:37;102634.03;;;11.05;81.16
8101;BME280;4093;53.470;9.832;2023-04-09T08:39:05;102634.31;;;11.29;80.24
8101;BME280;4093;53.470;9.832;2023-04-09T08:41:33;102638.91;;;11.61;78.89
8101;BME280;4093;53.470;9.832;2023-04-09T08:44:02;102631.47;;;11.99;77.21
8101;BME280;4093;53.470;9.832;2023-04-09T08:46:30;102626.63;;;10.64;82.17
8101;BME280;4093;53.470;9.832;2023-04-09T08:48:58;102638.94;;;11.63;80.08
8101;BME280;4093;53.470;9.832;2023-04-09T08:51:27;102638.53;;;12.13;77.50
8101;BME280;4093;53.470;9.832;2023-04-09T08:53:56;102626.50;;;12.27;76.38
8101;BME280;4093;53.470;9.832;2023-04-09T08:56:27;102631.09;;;11.55;79.03
8101;BME280;4093;53.470;9.832;2023-04-09T08:58:55;102630.63;;;11.09;80.14
8101;BME280;4093;53.470;9.832;2023-04-09T09:01:25;102640.91;;;11.03;81.13
8101;BME280;4093;53.470;9.832;2023-04-09T09:03:55;102631.88;;;11.46;78.95
8101;BME280;4093;53.470;9.832;2023-04-09T09:06:24;102623.78;;;12.12;76.85
8101;BME280;4093;53.470;9.832;2023-04-09T09:09:03;102644.00;;;12.71;73.38
8101;BME280;4093;53.470;9.832;2023-04-09T09:11:32;102626.56;;;12.41;75.28
8101;BME280;4093;53.470;9.832;2023-04-09T09:14:01;102629.19;;;12.45;75.53
8101;BME280;4093;53.470;9.832;2023-04-09T09:16:29;102632.03;;;13.16;71.58
8101;BME280;4093;53.470;9.832;2023-04-09T09:18:58;102615.50;;;12.79;73.11
8101;BME280;4093;53.470;9.832;2023-04-09T09:21:27;102604.09;;;12.43;73.40
8101;BME280;4093;53.470;9.832;2023-04-09T09:23:56;102605.53;;;11.95;76.69
8101;BME280;4093;53.470;9.832;2023-04-09T09:26:26;102622.28;;;12.44;75.62
8101;BME280;4093;53.470;9.832;2023-04-09T09:28:55;102629.56;;;13.54;71.16
8101;BME280;4093;53.470;9.832;2023-04-09T09:31:24;102625.22;;;13.56;71.45
8101;BME280;4093;53.470;9.832;2023-04-09T09:33:53;102615.59;;;13.08;71.55
8101;BME280;4093;53.470;9.832;2023-04-09T09:36:31;102610.50;;;13.48;69.68
8101;BME280;4093;53.470;9.832;2023-04-09T09:39:00;102616.56;;;13.45;70.47
8101;BME280;4093;53.470;9.832;2023-04-09T09:41:37;102607.91;;;13.61;68.93
8101;BME280;4093;53.470;9.832;2023-04-09T09:44:06;102607.88;;;13.31;70.49
8101;BME280;4093;53.470;9.832;2023-04-09T09:46:35;102613.09;;;13.68;69.27
8101;BME280;4093;53.470;9.832;2023-04-09T09:49:03;102609.47;;;14.67;66.54
8101;BME280;4093;53.470;9.832;2023-04-09T09:51:32;102612.63;;;15.21;66.87
8101;BME280;4093;53.470;9.832;2023-04-09T09:54:02;102610.00;;;15.22;64.31
8101;BME280;4093;53.470;9.832;2023-04-09T09:56:34;102614.25;;;15.37;63.83
8101;BME280;4093;53.470;9.832;2023-04-09T09:59:10;102599.09;;;14.51;66.94
8101;BME280;4093;53.470;9.832;2023-04-09T10:01:39;102592.94;;;14.69;64.79
8101;BME280;4093;53.470;9.832;2023-04-09T10:04:08;102594.03;;;13.76;70.38
8101;BME280;4093;53.470;9.832;2023-04-09T10:06:42;102590.56;;;13.48;68.44
8101;BME280;4093;53.470;9.832;2023-04-09T10:09:10;102586.16;;;13.07;71.38
8101;BME280;4093;53.470;9.832;2023-04-09T10:11:39;102583.56;;;13.04;71.26
8101;BME280;4093;53.470;9.832;2023-04-09T10:14:12;102590.16;;;15.04;66.67
8101;BME280;4093;53.470;9.832;2023-04-09T10:16:40;102576.69;;;13.74;68.51
8101;BME280;4093;53.470;9.832;2023-04-09T10:19:08;102592.53;;;15.37;65.38
8101;BME280;4093;53.470;9.832;2023-04-09T10:21:42;102587.19;;;15.54;64.32
8101;BME280;4093;53.470;9.832;2023-04-09T10:24:13;102573.91;;;14.50;66.33
8101;BME280;4093;53.470;9.832;2023-04-09T10:26:42;102578.13;;;15.98;63.23
8101;BME280;4093;53.470;9.832;2023-04-09T10:29:14;102573.00;;;16.62;63.05
8101;BME280;4093;53.470;9.832;2023-04-09T10:31:46;102572.50;;;17.02;61.46
8101;BME280;4093;53.470;9.832;2023-04-09T10:34:15;102572.53;;;15.40;64.95
8101;BME280;4093;53.470;9.832;2023-04-09T10:36:45;102558.13;;;15.95;63.58
8101;BME280;4093;53.470;9.832;2023-04-09T10:39:17;102560.06;;;16.55;61.02
8101;BME280;4093;53.470;9.832;2023-04-09T10:41:45;102558.47;;;13.81;69.12
8101;BME280;4093;53.470;9.832;2023-04-09T10:44:24;102557.59;;;15.59;64.59
8101;BME280;4093;53.470;9.832;2023-04-09T10:46:52;102554.31;;;15.39;65.52
8101;BME280;4093;53.470;9.832;2023-04-09T10:49:21;102549.84;;;13.65;70.49
8101;BME280;4093;53.470;9.832;2023-04-09T10:51:53;102559.25;;;14.25;68.25
8101;BME280;4093;53.470;9.832;2023-04-09T10:54:37;102542.56;;;14.79;65.75
8101;BME280;4093;53.470;9.832;2023-04-09T10:57:10;102547.53;;;15.15;65.66
8101;BME280;4093;53.470;9.832;2023-04-09T10:59:41;102537.31;;;14.84;65.35
8101;BME280;4093;53.470;9.832;2023-04-09T11:02:39;102533.41;;;15.45;64.79
8101;BME280;4093;53.470;9.832;2023-04-09T11:05:21;102546.25;;;14.19;68.31
8101;BME280;4093;53.470;9.832;2023-04-09T11:07:53;102536.84;;;13.70;69.16
8101;BME280;4093;53.470;9.832;2023-04-09T11:10:21;102542.88;;;13.87;68.79
8101;BME280;4093;53.470;9.832;2023-04-09T11:12:49;102536.78;;;14.01;70.16
8101;BME280;4093;53.470;9.832;2023-04-09T11:15:18;102539.25;;;14.39;67.94
8101;BME280;4093;53.470;9.832;2023-04-09T11:17:47;102537.66;;;13.87;68.06
8101;BME280;4093;53.470;9.832;2023-04-09T11:20:16;102541.00;;;14.37;68.08
8101;BME280;4093;53.470;9.832;2023-04-09T11:22:46;102512.44;;;14.12;67.80
8101;BME280;4093;53.470;9.832;2023-04-09T11:25:18;102517.78;;;13.63;70.46
8101;BME280;4093;53.470;9.832;2023-04-09T11:27:46;102544.59;;;13.95;70.57
8101;BME280;4093;53.470;9.832;2023-04-09T11:30:14;102545.25;;;14.60;69.25
8101;BME280;4093;53.470;9.832;2023-04-09T11:32:43;102536.81;;;13.98;70.38
8101;BME280;4093;53.470;9.832;2023-04-09T11:35:11;102537.25;;;14.95;66.59
8101;BME280;4093;53.470;9.832;2023-04-09T11:37:40;102532.19;;;14.70;66.76
8101;BME280;4093;53.470;9.832;2023-04-09T11:40:14;102515.81;;;14.51;66.79
8101;BME280;4093;53.470;9.832;2023-04-09T11:42:43;102528.91;;;14.22;69.49
8101;BME280;4093;53.470;9.832;2023-04-09T11:45:14;102527.25;;;14.00;68.00
8101;BME280;4093;53.470;9.832;2023-04-09T11:47:44;102520.63;;;15.14;65.07
8101;BME280;4093;53.470;9.832;2023-04-09T11:50:13;102523.75;;;14.07;68.25
8101;BME280;4093;53.470;9.832;2023-04-09T11:52:41;102519.22;;;14.50;66.62
8101;BME280;4093;53.470;9.832;2023-04-09T11:55:09;102523.91;;;15.35;66.11
8101;BME280;4093;53.470;9.832;2023-04-09T11:57:42;102510.00;;;15.36;64.37
8101;BME280;4093;53.470;9.832;2023-04-09T12:00:11;102508.41;;;15.16;66.31
8101;BME280;4093;53.470;9.832;2023-04-09T12:02:45;102504.53;;;15.68;64.42
8101;BME280;4093;53.470;9.832;2023-04-09T12:05:20;102500.41;;;15.38;65.02
8101;BME280;4093;53.470;9.832;2023-04-09T12:07:48;102502.88;;;15.55;65.53
8101;BME280;4093;53.470;9.832;2023-04-09T12:10:26;102496.56;;;14.74;66.27
8101;BME280;4093;53.470;9.832;2023-04-09T12:12:59;102502.66;;;14.71;66.25
8101;BME280;4093;53.470;9.832;2023-04-09T12:15:31;102503.38;;;14.93;67.13
8101;BME280;4093;53.470;9.832;2023-04-09T12:18:00;102500.81;;;14.92;67.88
8101;BME280;4093;53.470;9.832;2023-04-09T12:20:31;102499.44;;;14.19;69.78
8101;BME280;4093;53.470;9.832;2023-04-09T12:23:01;102500.44;;;15.35;66.83
8101;BME280;4093;53.470;9.832;2023-04-09T12:25:29;102487.00;;;14.77;66.82
8101;BME280;4093;53.470;9.832;2023-04-09T12:27:57;102485.00;;;15.15;66.04
8101;BME280;4093;53.470;9.832;2023-04-09T12:30:25;102482.63;;;14.81;65.45
8101;BME280;4093;53.470;9.832;2023-04-09T12:32:53;102476.91;;;15.45;62.80
8101;BME280;4093;53.470;9.832;2023-04-09T12:35:23;102478.00;;;15.20;64.69
8101;BME280;4093;53.470;9.832;2023-04-09T12:37:50;102481.16;;;15.53;65.15
8101;BME280;4093;53.470;9.832;2023-04-09T12:40:18;102472.44;;;14.40;67.21
8101;BME280;4093;53.470;9.832;2023-04-09T12:42:46;102474.34;;;14.05;68.44
8101;BME280;4093;53.470;9.832;2023-04-09T12:45:16;102482.13;;;14.05;69.38
8101;BME280;4093;53.470;9.832;2023-04-09T12:47:44;102481.16;;;14.28;68.39
8101;BME280;4093;53.470;9.832;2023-04-09T12:50:13;102468.97;;;14.38;67.33
8101;BME280;4093;53.470;9.832;2023-04-09T12:52:43;102482.63;;;14.84;64.35
8101;BME280;4093;53.470;9.832;2023-04-09T12:55:11;102477.81;;;15.40;63.52
8101;BME280;4093;53.470;9.832;2023-04-09T12:57:41;102462.53;;;15.92;64.05
8101;BME280;4093;53.470;9.832;2023-04-09T13:00:10;102464.47;;;15.72;63.34
8101;BME280;4093;53.470;9.832;2023-04-09T13:02:38;102468.66;;;15.85;61.12
8101;BME280;4093;53.470;9.832;2023-04-09T13:05:07;102453.44;;;15.44;62.93
8101;BME280;4093;53.470;9.832;2023-04-09T13:07:35;102453.00;;;14.94;64.31
8101;BME280;4093;53.470;9.832;2023-04-09T13:10:05;102455.63;;;15.85;63.33
8101;BME280;4093;53.470;9.832;2023-04-09T13:12:32;102445.25;;;15.79;62.41
8101;BME280;4093;53.470;9.832;2023-04-09T13:15:00;102445.59;;;16.23;61.28
8101;BME280;4093;53.470;9.832;2023-04-09T13:17:28;102442.97;;;16.24;60.97
8101;BME280;4093;53.470;9.832;2023-04-09T13:19:56;102429.38;;;15.98;62.65
8101;BME280;4093;53.470;9.832;2023-04-09T13:22:24;102435.88;;;16.32;63.21